Terminal Aerodrome Forecast
Issued by NWS Shreveport, LA

Home | Current Version | Previous Version | Text Only | Print | Product List | Glossary On
Versions: 1 2 3 4 5 6 7 8 9 10 11 12 13 14 15 16 17 18
713
FTUS44 KSHV 171515 AAB
TAFTYR
TAF AMD
KTYR 171515Z 1715/1812 08008KT 5SM -TSRA BR SCT005 OVC035CB
      TEMPO 1715/1717 VRB10G20KT 2SM +TSRA BR OVC005CB
     FM171900 21010KT P6SM BKN040
     FM180000 15004KT P6SM SCT040 BKN120=

USA.gov is the U.S. government's official web portal to all federal, state and local government web resources and services.